sensor_id;sensor_type;location;lat;lon;timestamp;pressure;altitude;pressure_sealevel;temperature
8533;BMP280;4304;53.876;10.662;2024-03-23T00:51:07;100651.59;;;7.03
8533;BMP280;4304;53.876;10.662;2024-03-23T00:53:33;100651.75;;;7.00
8533;BMP280;4304;53.876;10.662;2024-03-23T00:55:59;100644.09;;;6.99
8533;BMP280;4304;53.876;10.662;2024-03-23T00:58:24;100645.03;;;6.98
8533;BMP280;4304;53.876;10.662;2024-03-23T01:00:49;100647.69;;;6.96
8533;BMP280;4304;53.876;10.662;2024-03-23T01:03:15;100641.66;;;6.96
8533;BMP280;4304;53.876;10.662;2024-03-23T01:05:40;100630.09;;;7.03
8533;BMP280;4304;53.876;10.662;2024-03-23T01:08:05;100625.59;;;6.91
8533;BMP280;4304;53.876;10.662;2024-03-23T01:10:31;100629.03;;;6.91
8533;BMP280;4304;53.876;10.662;2024-03-23T01:12:56;100619.75;;;6.87
8533;BMP280;4304;53.876;10.662;2024-03-23T01:15:21;100620.00;;;6.98
8533;BMP280;4304;53.876;10.662;2024-03-23T01:17:46;100624.00;;;6.88
8533;BMP280;4304;53.876;10.662;2024-03-23T01:20:12;100620.84;;;6.83
8533;BMP280;4304;53.876;10.662;2024-03-23T01:22:37;100610.69;;;6.80
8533;BMP280;4304;53.876;10.662;2024-03-23T01:25:02;100610.59;;;6.82
8533;BMP280;4304;53.876;10.662;2024-03-23T01:27:28;100607.94;;;6.83
8533;BMP280;4304;53.876;10.662;2024-03-23T01:29:53;100613.03;;;6.85
8533;BMP280;4304;53.876;10.662;2024-03-23T01:32:19;100601.75;;;6.86
8533;BMP280;4304;53.876;10.662;2024-03-23T01:34:44;100585.94;;;6.77
8533;BMP280;4304;53.876;10.662;2024-03-23T01:37:10;100593.41;;;6.81
8533;BMP280;4304;53.876;10.662;2024-03-23T01:39:35;100603.94;;;6.78
8533;BMP280;4304;53.876;10.662;2024-03-23T01:42:00;100589.28;;;6.79
8533;BMP280;4304;53.876;10.662;2024-03-23T01:44:26;100582.66;;;6.73
8533;BMP280;4304;53.876;10.662;2024-03-23T01:46:51;100570.63;;;6.74
8533;BMP280;4304;53.876;10.662;2024-03-23T01:49:17;100577.34;;;6.61
8533;BMP280;4304;53.876;10.662;2024-03-23T01:51:42;100580.75;;;6.61
8533;BMP280;4304;53.876;10.662;2024-03-23T01:54:09;100568.00;;;6.58
8533;BMP280;4304;53.876;10.662;2024-03-23T01:56:34;100568.50;;;6.65
8533;BMP280;4304;53.876;10.662;2024-03-23T01:59:06;100572.94;;;6.63
8533;BMP280;4304;53.876;10.662;2024-03-23T02:01:32;100569.44;;;6.64
8533;BMP280;4304;53.876;10.662;2024-03-23T02:03:59;100557.59;;;6.60
8533;BMP280;4304;53.876;10.662;2024-03-23T02:06:25;100558.53;;;6.59
8533;BMP280;4304;53.876;10.662;2024-03-23T02:08:50;100562.44;;;6.50
8533;BMP280;4304;53.876;10.662;2024-03-23T02:11:16;100553.09;;;6.48
8533;BMP280;4304;53.876;10.662;2024-03-23T02:13:41;100540.13;;;6.49
8533;BMP280;4304;53.876;10.662;2024-03-23T02:16:06;100541.03;;;6.48
8533;BMP280;4304;53.876;10.662;2024-03-23T02:18:32;100534.53;;;6.41
8533;BMP280;4304;53.876;10.662;2024-03-23T02:20:58;100531.44;;;6.35
8533;BMP280;4304;53.876;10.662;2024-03-23T02:23:23;100539.78;;;6.40
8533;BMP280;4304;53.876;10.662;2024-03-23T02:25:49;100528.88;;;6.35
8533;BMP280;4304;53.876;10.662;2024-03-23T02:28:15;100534.03;;;6.35
8533;BMP280;4304;53.876;10.662;2024-03-23T02:30:40;100540.84;;;6.21
8533;BMP280;4304;53.876;10.662;2024-03-23T02:33:05;100533.50;;;6.29
8533;BMP280;4304;53.876;10.662;2024-03-23T02:35:31;100539.16;;;6.20
8533;BMP280;4304;53.876;10.662;2024-03-23T02:37:56;100526.28;;;6.20
8533;BMP280;4304;53.876;10.662;2024-03-23T02:40:23;100519.50;;;6.17
8533;BMP280;4304;53.876;10.662;2024-03-23T02:42:48;100523.94;;;6.15
8533;BMP280;4304;53.876;10.662;2024-03-23T02:45:14;100509.78;;;6.22
8533;BMP280;4304;53.876;10.662;2024-03-23T02:47:39;100499.06;;;6.14
8533;BMP280;4304;53.876;10.662;2024-03-23T02:50:04;100500.56;;;6.18
8533;BMP280;4304;53.876;10.662;2024-03-23T02:52:30;100513.03;;;6.10
8533;BMP280;4304;53.876;10.662;2024-03-23T02:54:56;100501.81;;;6.11
8533;BMP280;4304;53.876;10.662;2024-03-23T02:57:24;100504.38;;;6.11
8533;BMP280;4304;53.876;10.662;2024-03-23T02:59:49;100504.09;;;6.00
8533;BMP280;4304;53.876;10.662;2024-03-23T03:02:15;100501.53;;;6.00
8533;BMP280;4304;53.876;10.662;2024-03-23T03:04:40;100498.59;;;5.91
8533;BMP280;4304;53.876;10.662;2024-03-23T03:07:05;100499.59;;;5.89
8533;BMP280;4304;53.876;10.662;2024-03-23T03:09:31;100492.31;;;5.80
8533;BMP280;4304;53.876;10.662;2024-03-23T03:11:56;100498.25;;;5.82
8533;BMP280;4304;53.876;10.662;2024-03-23T03:14:22;100493.50;;;5.73
8533;BMP280;4304;53.876;10.662;2024-03-23T03:16:47;100489.13;;;5.75
8533;BMP280;4304;53.876;10.662;2024-03-23T03:19:12;100482.75;;;5.65
8533;BMP280;4304;53.876;10.662;2024-03-23T03:21:38;100481.56;;;5.72
8533;BMP280;4304;53.876;10.662;2024-03-23T03:24:05;100481.94;;;5.64
8533;BMP280;4304;53.876;10.662;2024-03-23T03:26:31;100477.19;;;5.57
8533;BMP280;4304;53.876;10.662;2024-03-23T03:28:57;100471.63;;;5.64
8533;BMP280;4304;53.876;10.662;2024-03-23T03:31:22;100473.53;;;5.61
8533;BMP280;4304;53.876;10.662;2024-03-23T03:33:49;100468.22;;;5.64
8533;BMP280;4304;53.876;10.662;2024-03-23T03:36:14;100460.72;;;5.59
8533;BMP280;4304;53.876;10.662;2024-03-23T03:38:39;100468.22;;;5.64
8533;BMP280;4304;53.876;10.662;2024-03-23T03:41:05;100466.53;;;5.63
8533;BMP280;4304;53.876;10.662;2024-03-23T03:43:31;100446.94;;;5.60
8533;BMP280;4304;53.876;10.662;2024-03-23T03:45:57;100450.03;;;5.67
8533;BMP280;4304;53.876;10.662;2024-03-23T03:48:23;100445.19;;;5.61
8533;BMP280;4304;53.876;10.662;2024-03-23T03:50:48;100448.28;;;5.67
8533;BMP280;4304;53.876;10.662;2024-03-23T03:53:14;100438.34;;;5.60
8533;BMP280;4304;53.876;10.662;2024-03-23T03:55:39;100445.34;;;5.58
8533;BMP280;4304;53.876;10.662;2024-03-23T03:58:04;100445.75;;;5.51
8533;BMP280;4304;53.876;10.662;2024-03-23T04:00:30;100436.84;;;5.56
8533;BMP280;4304;53.876;10.662;2024-03-23T04:02:55;100429.28;;;5.53
8533;BMP280;4304;53.876;10.662;2024-03-23T04:05:21;100424.78;;;5.56
8533;BMP280;4304;53.876;10.662;2024-03-23T04:07:47;100419.03;;;5.51
8533;BMP280;4304;53.876;10.662;2024-03-23T04:10:13;100418.06;;;5.54
8533;BMP280;4304;53.876;10.662;2024-03-23T04:12:38;100414.25;;;5.61
8533;BMP280;4304;53.876;10.662;2024-03-23T04:15:04;100410.06;;;5.58
8533;BMP280;4304;53.876;10.662;2024-03-23T04:17:30;100401.53;;;5.58
8533;BMP280;4304;53.876;10.662;2024-03-23T04:20:00;100397.31;;;5.57
8533;BMP280;4304;53.876;10.662;2024-03-23T04:22:25;100396.59;;;5.53
8533;BMP280;4304;53.876;10.662;2024-03-23T04:24:54;100388.56;;;5.59
8533;BMP280;4304;53.876;10.662;2024-03-23T04:27:19;100388.88;;;5.53
8533;BMP280;4304;53.876;10.662;2024-03-23T04:29:48;100378.50;;;5.55
8533;BMP280;4304;53.876;10.662;2024-03-23T04:32:14;100383.63;;;5.55
8533;BMP280;4304;53.876;10.662;2024-03-23T04:34:39;100380.25;;;5.54
8533;BMP280;4304;53.876;10.662;2024-03-23T04:37:05;100374.41;;;5.51
8533;BMP280;4304;53.876;10.662;2024-03-23T04:39:30;100383.97;;;5.49
8533;BMP280;4304;53.876;10.662;2024-03-23T04:41:55;100386.56;;;5.49
8533;BMP280;4304;53.876;10.662;2024-03-23T04:44:20;100370.34;;;5.47
8533;BMP280;4304;53.876;10.662;2024-03-23T04:46:46;100357.03;;;5.39
8533;BMP280;4304;53.876;10.662;2024-03-23T04:49:11;100354.47;;;5.39
8533;BMP280;4304;53.876;10.662;2024-03-23T04:51:37;100344.69;;;5.29
8533;BMP280;4304;53.876;10.662;2024-03-23T04:54:10;100336.81;;;5.32
8533;BMP280;4304;53.876;10.662;2024-03-23T04:56:36;100347.63;;;5.38
8533;BMP280;4304;53.876;10.662;2024-03-23T04:59:01;100362.41;;;5.35
8533;BMP280;4304;53.876;10.662;2024-03-23T05:01:29;100368.38;;;5.35
8533;BMP280;4304;53.876;10.662;2024-03-23T05:03:56;100363.75;;;5.42
8533;BMP280;4304;53.876;10.662;2024-03-23T05:06:22;100370.88;;;5.37
8533;BMP280;4304;53.876;10.662;2024-03-23T05:08:47;100374.72;;;5.45
8533;BMP280;4304;53.876;10.662;2024-03-23T05:11:12;100367.56;;;5.35
8533;BMP280;4304;53.876;10.662;2024-03-23T05:13:38;100368.97;;;5.40
8533;BMP280;4304;53.876;10.662;2024-03-23T05:16:03;100361.34;;;5.39
8533;BMP280;4304;53.876;10.662;2024-03-23T05:18:29;100359.47;;;5.42
8533;BMP280;4304;53.876;10.662;2024-03-23T05:20:58;100347.78;;;5.35
8533;BMP280;4304;53.876;10.662;2024-03-23T05:23:27;100341.50;;;5.41
8533;BMP280;4304;53.876;10.662;2024-03-23T05:25:53;100332.75;;;5.43
8533;BMP280;4304;53.876;10.662;2024-03-23T05:28:18;100329.22;;;5.46
8533;BMP280;4304;53.876;10.662;2024-03-23T05:30:44;100338.00;;;5.42
8533;BMP280;4304;53.876;10.662;2024-03-23T05:33:14;100336.09;;;5.45
8533;BMP280;4304;53.876;10.662;2024-03-23T05:35:40;100334.28;;;5.47
8533;BMP280;4304;53.876;10.662;2024-03-23T05:38:05;100328.03;;;5.51
8533;BMP280;4304;53.876;10.662;2024-03-23T05:40:31;100337.19;;;5.56
8533;BMP280;4304;53.876;10.662;2024-03-23T05:42:56;100346.31;;;5.47
8533;BMP280;4304;53.876;10.662;2024-03-23T05:45:22;100328.13;;;5.50
8533;BMP280;4304;53.876;10.662;2024-03-23T05:47:48;100328.38;;;5.60
8533;BMP280;4304;53.876;10.662;2024-03-23T05:50:13;100330.25;;;5.74
8533;BMP280;4304;53.876;10.662;2024-03-23T05:52:39;100325.91;;;5.74
8533;BMP280;4304;53.876;10.662;2024-03-23T05:55:04;100330.91;;;5.77
8533;BMP280;4304;53.876;10.662;2024-03-23T05:57:30;100314.63;;;5.77
8533;BMP280;4304;53.876;10.662;2024-03-23T05:59:55;100324.50;;;5.84
8533;BMP280;4304;53.876;10.662;2024-03-23T06:02:20;100327.31;;;5.80
8533;BMP280;4304;53.876;10.662;2024-03-23T06:04:46;100319.34;;;5.84
8533;BMP280;4304;53.876;10.662;2024-03-23T06:07:11;100317.28;;;5.91
8533;BMP280;4304;53.876;10.662;2024-03-23T06:09:41;100296.66;;;5.91
8533;BMP280;4304;53.876;10.662;2024-03-23T06:12:07;100303.59;;;6.04
8533;BMP280;4304;53.876;10.662;2024-03-23T06:14:33;100295.38;;;6.13
8533;BMP280;4304;53.876;10.662;2024-03-23T06:16:59;100291.63;;;6.18
8533;BMP280;4304;53.876;10.662;2024-03-23T06:19:25;100289.03;;;6.18
8533;BMP280;4304;53.876;10.662;2024-03-23T06:21:52;100284.44;;;6.23
8533;BMP280;4304;53.876;10.662;2024-03-23T06:24:18;100282.19;;;6.33
8533;BMP280;4304;53.876;10.662;2024-03-23T06:26:43;100285.81;;;6.44
8533;BMP280;4304;53.876;10.662;2024-03-23T06:29:08;100297.94;;;6.42
8533;BMP280;4304;53.876;10.662;2024-03-23T06:31:34;100306.13;;;6.35
8533;BMP280;4304;53.876;10.662;2024-03-23T06:33:59;100306.41;;;6.59
8533;BMP280;4304;53.876;10.662;2024-03-23T06:36:24;100317.69;;;6.72
8533;BMP280;4304;53.876;10.662;2024-03-23T06:38:50;100312.78;;;6.68
8533;BMP280;4304;53.876;10.662;2024-03-23T06:41:15;100303.31;;;6.82
8533;BMP280;4304;53.876;10.662;2024-03-23T06:43:40;100327.59;;;6.93
8533;BMP280;4304;53.876;10.662;2024-03-23T06:46:06;100322.63;;;7.04
8533;BMP280;4304;53.876;10.662;2024-03-23T06:48:31;100323.00;;;7.26
8533;BMP280;4304;53.876;10.662;2024-03-23T06:50:56;100317.50;;;7.58
8533;BMP280;4304;53.876;10.662;2024-03-23T06:53:22;100320.19;;;7.70
8533;BMP280;4304;53.876;10.662;2024-03-23T06:55:51;100330.28;;;7.87
8533;BMP280;4304;53.876;10.662;2024-03-23T06:58:24;100340.38;;;7.92
8533;BMP280;4304;53.876;10.662;2024-03-23T07:00:50;100350.50;;;8.35
8533;BMP280;4304;53.876;10.662;2024-03-23T07:03:16;100369.63;;;8.46
8533;BMP280;4304;53.876;10.662;2024-03-23T07:05:42;100369.41;;;8.88
8533;BMP280;4304;53.876;10.662;2024-03-23T07:08:07;100380.97;;;9.21
8533;BMP280;4304;53.876;10.662;2024-03-23T07:10:33;100385.72;;;9.14
8533;BMP280;4304;53.876;10.662;2024-03-23T07:12:58;100397.97;;;9.12
8533;BMP280;4304;53.876;10.662;2024-03-23T07:15:23;100394.72;;;8.96
8533;BMP280;4304;53.876;10.662;2024-03-23T07:17:49;100395.19;;;8.77
8533;BMP280;4304;53.876;10.662;2024-03-23T07:20:14;100403.34;;;8.71
8533;BMP280;4304;53.876;10.662;2024-03-23T07:22:39;100402.88;;;8.52
8533;BMP280;4304;53.876;10.662;2024-03-23T07:25:05;100404.88;;;8.35
8533;BMP280;4304;53.876;10.662;2024-03-23T07:27:31;100411.19;;;8.57
8533;BMP280;4304;53.876;10.662;2024-03-23T07:29:57;100409.44;;;8.57
8533;BMP280;4304;53.876;10.662;2024-03-23T07:32:22;100406.03;;;8.43
8533;BMP280;4304;53.876;10.662;2024-03-23T07:34:48;100408.34;;;8.74
8533;BMP280;4304;53.876;10.662;2024-03-23T07:37:13;100415.06;;;9.15
8533;BMP280;4304;53.876;10.662;2024-03-23T07:39:41;100417.31;;;9.07
8533;BMP280;4304;53.876;10.662;2024-03-23T07:42:06;100417.66;;;9.15
8533;BMP280;4304;53.876;10.662;2024-03-23T07:44:32;100419.09;;;9.19
8533;BMP280;4304;53.876;10.662;2024-03-23T07:47:00;100409.69;;;9.42
8533;BMP280;4304;53.876;10.662;2024-03-23T07:49:26;100418.50;;;9.40
8533;BMP280;4304;53.876;10.662;2024-03-23T07:51:51;100420.38;;;9.50
8533;BMP280;4304;53.876;10.662;2024-03-23T07:54:16;100416.75;;;9.65
8533;BMP280;4304;53.876;10.662;2024-03-23T07:56:41;100429.06;;;9.25
8533;BMP280;4304;53.876;10.662;2024-03-23T07:59:07;100422.75;;;9.41
8533;BMP280;4304;53.876;10.662;2024-03-23T08:01:32;100413.50;;;9.25
8533;BMP280;4304;53.876;10.662;2024-03-23T08:03:57;100415.81;;;9.29
8533;BMP280;4304;53.876;10.662;2024-03-23T08:06:22;100412.47;;;9.02
8533;BMP280;4304;53.876;10.662;2024-03-23T08:08:52;100407.47;;;8.99
8533;BMP280;4304;53.876;10.662;2024-03-23T08:11:28;100404.59;;;9.16
8533;BMP280;4304;53.876;10.662;2024-03-23T08:13:55;100397.97;;;9.62
8533;BMP280;4304;53.876;10.662;2024-03-23T08:16:20;100406.75;;;9.84
8533;BMP280;4304;53.876;10.662;2024-03-23T08:18:46;100410.47;;;10.05
8533;BMP280;4304;53.876;10.662;2024-03-23T08:21:11;100426.91;;;9.93
8533;BMP280;4304;53.876;10.662;2024-03-23T08:23:36;100416.38;;;10.19
8533;BMP280;4304;53.876;10.662;2024-03-23T08:26:12;100420.00;;;10.52
8533;BMP280;4304;53.876;10.662;2024-03-23T08:28:40;100427.19;;;10.49
8533;BMP280;4304;53.876;10.662;2024-03-23T08:31:11;100432.03;;;10.53
8533;BMP280;4304;53.876;10.662;2024-03-23T08:33:37;100414.22;;;10.36
8533;BMP280;4304;53.876;10.662;2024-03-23T08:36:05;100433.47;;;10.34
8533;BMP280;4304;53.876;10.662;2024-03-23T08:38:31;100429.91;;;10.35
8533;BMP280;4304;53.876;10.662;2024-03-23T08:43:23;100423.09;;;10.22
8533;BMP280;4304;53.876;10.662;2024-03-23T08:45:48;100410.47;;;10.40
8533;BMP280;4304;53.876;10.662;2024-03-23T08:48:14;100410.28;;;10.43
8533;BMP280;4304;53.876;10.662;2024-03-23T08:50:39;100405.72;;;10.34
8533;BMP280;4304;53.876;10.662;2024-03-23T08:53:04;100418.50;;;10.25
8533;BMP280;4304;53.876;10.662;2024-03-23T08:55:30;100417.19;;;10.20
8533;BMP280;4304;53.876;10.662;2024-03-23T08:57:55;100402.59;;;10.06
8533;BMP280;4304;53.876;10.662;2024-03-23T09:00:21;100415.69;;;9.80
8533;BMP280;4304;53.876;10.662;2024-03-23T09:02:50;100398.03;;;9.73
8533;BMP280;4304;53.876;10.662;2024-03-23T09:05:15;100381.75;;;9.83
8533;BMP280;4304;53.876;10.662;2024-03-23T09:07:40;100385.72;;;10.47
8533;BMP280;4304;53.876;10.662;2024-03-23T09:10:07;100396.00;;;11.06
8533;BMP280;4304;53.876;10.662;2024-03-23T09:12:32;100397.22;;;11.24
8533;BMP280;4304;53.876;10.662;2024-03-23T09:14:58;100403.34;;;11.23
8533;BMP280;4304;53.876;10.662;2024-03-23T09:17:23;100395.94;;;11.40
8533;BMP280;4304;53.876;10.662;2024-03-23T09:19:48;100395.19;;;11.06
8533;BMP280;4304;53.876;10.662;2024-03-23T09:22:14;100401.53;;;11.02
8533;BMP280;4304;53.876;10.662;2024-03-23T09:24:39;100403.91;;;11.05
8533;BMP280;4304;53.876;10.662;2024-03-23T09:27:05;100402.06;;;11.28
8533;BMP280;4304;53.876;10.662;2024-03-23T09:29:30;100398.00;;;11.58
8533;BMP280;4304;53.876;10.662;2024-03-23T09:31:55;100392.09;;;11.46
8533;BMP280;4304;53.876;10.662;2024-03-23T09:34:21;100387.25;;;11.63
8533;BMP280;4304;53.876;10.662;2024-03-23T09:36:47;100389.38;;;11.80
8533;BMP280;4304;53.876;10.662;2024-03-23T09:39:12;100397.06;;;11.81
8533;BMP280;4304;53.876;10.662;2024-03-23T09:41:39;100401.56;;;11.12
8533;BMP280;4304;53.876;10.662;2024-03-23T09:44:05;100384.47;;;11.43
8533;BMP280;4304;53.876;10.662;2024-03-23T09:46:31;100385.19;;;11.45
8533;BMP280;4304;53.876;10.662;2024-03-23T09:48:59;100383.16;;;11.37
8533;BMP280;4304;53.876;10.662;2024-03-23T09:51:25;100376.34;;;11.47
8533;BMP280;4304;53.876;10.662;2024-03-23T09:53:51;100379.78;;;11.80
8533;BMP280;4304;53.876;10.662;2024-03-23T09:56:17;100379.41;;;11.95
8533;BMP280;4304;53.876;10.662;2024-03-23T09:58:42;100383.50;;;12.41
8533;BMP280;4304;53.876;10.662;2024-03-23T10:01:08;100388.38;;;12.13
8533;BMP280;4304;53.876;10.662;2024-03-23T10:03:42;100386.75;;;11.69
8533;BMP280;4304;53.876;10.662;2024-03-23T10:06:08;100366.97;;;11.45
8533;BMP280;4304;53.876;10.662;2024-03-23T10:08:33;100363.47;;;11.46
8533;BMP280;4304;53.876;10.662;2024-03-23T10:11:13;100352.44;;;11.42
8533;BMP280;4304;53.876;10.662;2024-03-23T10:13:42;100357.25;;;11.14
8533;BMP280;4304;53.876;10.662;2024-03-23T10:16:08;100365.00;;;11.03
8533;BMP280;4304;53.876;10.662;2024-03-23T10:18:38;100370.53;;;10.88
8533;BMP280;4304;53.876;10.662;2024-03-23T10:21:10;100357.03;;;10.49
8533;BMP280;4304;53.876;10.662;2024-03-23T10:23:38;100348.97;;;10.18
8533;BMP280;4304;53.876;10.662;2024-03-23T10:28:59;100344.72;;;10.74
8533;BMP280;4304;53.876;10.662;2024-03-23T10:31:37;100340.38;;;11.30
8533;BMP280;4304;53.876;10.662;2024-03-23T10:34:03;100354.59;;;11.59
8533;BMP280;4304;53.876;10.662;2024-03-23T10:36:29;100353.66;;;11.60
8533;BMP280;4304;53.876;10.662;2024-03-23T10:38:55;100365.72;;;11.83
8533;BMP280;4304;53.876;10.662;2024-03-23T10:41:21;100352.94;;;12.33
8533;BMP280;4304;53.876;10.662;2024-03-23T10:43:48;100351.25;;;12.74
8533;BMP280;4304;53.876;10.662;2024-03-23T10:46:14;100337.72;;;13.40
8533;BMP280;4304;53.876;10.662;2024-03-23T10:48:39;100346.81;;;13.05
8533;BMP280;4304;53.876;10.662;2024-03-23T10:51:08;100370.81;;;12.99
8533;BMP280;4304;53.876;10.662;2024-03-23T10:53:35;100362.03;;;12.69
8533;BMP280;4304;53.876;10.662;2024-03-23T10:56:02;100355.91;;;12.59
8533;BMP280;4304;53.876;10.662;2024-03-23T10:58:31;100339.81;;;12.54
8533;BMP280;4304;53.876;10.662;2024-03-23T11:00:58;100322.75;;;12.92
8533;BMP280;4304;53.876;10.662;2024-03-23T11:05:55;100327.69;;;13.16
8533;BMP280;4304;53.876;10.662;2024-03-23T11:08:35;100331.66;;;12.79
8533;BMP280;4304;53.876;10.662;2024-03-23T11:13:38;100353.84;;;13.05
8533;BMP280;4304;53.876;10.662;2024-03-23T11:18:49;100356.13;;;12.98
8533;BMP280;4304;53.876;10.662;2024-03-23T11:21:53;100351.78;;;13.08
8533;BMP280;4304;53.876;10.662;2024-03-23T11:24:22;100349.06;;;12.89
8533;BMP280;4304;53.876;10.662;2024-03-23T11:26:48;100339.22;;;12.93
8533;BMP280;4304;53.876;10.662;2024-03-23T11:29:16;100316.75;;;13.01
8533;BMP280;4304;53.876;10.662;2024-03-23T11:34:12;100341.31;;;13.49
8533;BMP280;4304;53.876;10.662;2024-03-23T11:36:38;100340.38;;;13.29
8533;BMP280;4304;53.876;10.662;2024-03-23T11:39:17;100344.09;;;13.57
8533;BMP280;4304;53.876;10.662;2024-03-23T11:41:49;100346.13;;;13.83
8533;BMP280;4304;53.876;10.662;2024-03-23T11:44:20;100336.16;;;13.67
8533;BMP280;4304;53.876;10.662;2024-03-23T11:46:46;100303.28;;;13.26
8533;BMP280;4304;53.876;10.662;2024-03-23T11:49:25;100320.06;;;13.03
8533;BMP280;4304;53.876;10.662;2024-03-23T11:51:52;100315.53;;;12.34
8533;BMP280;4304;53.876;10.662;2024-03-23T11:54:23;100297.84;;;12.06
8533;BMP280;4304;53.876;10.662;2024-03-23T12:01:58;100292.97;;;11.59
8533;BMP280;4304;53.876;10.662;2024-03-23T12:04:29;100289.53;;;11.48
8533;BMP280;4304;53.876;10.662;2024-03-23T12:07:20;100291.66;;;11.32
8533;BMP280;4304;53.876;10.662;2024-03-23T12:10:06;100293.31;;;11.22
8533;BMP280;4304;53.876;10.662;2024-03-23T12:12:31;100299.22;;;11.24
8533;BMP280;4304;53.876;10.662;2024-03-23T12:15:04;100304.88;;;11.18
8533;BMP280;4304;53.876;10.662;2024-03-23T12:17:31;100306.41;;;10.99
8533;BMP280;4304;53.876;10.662;2024-03-23T12:19:56;100287.72;;;10.49
8533;BMP280;4304;53.876;10.662;2024-03-23T12:22:23;100291.72;;;10.42
8533;BMP280;4304;53.876;10.662;2024-03-23T12:24:49;100295.25;;;10.41
8533;BMP280;4304;53.876;10.662;2024-03-23T12:27:14;100313.53;;;10.63
8533;BMP280;4304;53.876;10.662;2024-03-23T12:29:40;100313.84;;;10.93
8533;BMP280;4304;53.876;10.662;2024-03-23T12:32:06;100327.06;;;10.90
8533;BMP280;4304;53.876;10.662;2024-03-23T12:34:32;100323.56;;;11.23
8533;BMP280;4304;53.876;10.662;2024-03-23T12:36:58;100323.06;;;11.18
8533;BMP280;4304;53.876;10.662;2024-03-23T12:39:23;100304.66;;;11.10
8533;BMP280;4304;53.876;10.662;2024-03-23T12:41:49;100296.38;;;11.06
8533;BMP280;4304;53.876;10.662;2024-03-23T12:44:14;100281.56;;;10.95
8533;BMP280;4304;53.876;10.662;2024-03-23T12:46:41;100280.25;;;10.79
8533;BMP280;4304;53.876;10.662;2024-03-23T12:49:06;100264.19;;;10.85
8533;BMP280;4304;53.876;10.662;2024-03-23T12:51:32;100278.91;;;10.52
8533;BMP280;4304;53.876;10.662;2024-03-23T12:53:58;100278.16;;;10.50
8533;BMP280;4304;53.876;10.662;2024-03-23T12:56:23;100291.66;;;10.31
8533;BMP280;4304;53.876;10.662;2024-03-23T12:58:49;100316.31;;;10.03
8533;BMP280;4304;53.876;10.662;2024-03-23T13:01:17;100311.78;;;9.94
8533;BMP280;4304;53.876;10.662;2024-03-23T13:03:42;100320.59;;;9.91
8533;BMP280;4304;53.876;10.662;2024-03-23T13:06:10;100314.16;;;9.97
8533;BMP280;4304;53.876;10.662;2024-03-23T13:08:35;100328.38;;;9.91
8533;BMP280;4304;53.876;10.662;2024-03-23T13:11:00;100317.56;;;9.97
8533;BMP280;4304;53.876;10.662;2024-03-23T13:13:25;100302.63;;;10.24
8533;BMP280;4304;53.876;10.662;2024-03-23T13:15:51;100323.38;;;10.47
8533;BMP280;4304;53.876;10.662;2024-03-23T13:18:16;100329.59;;;10.34
8533;BMP280;4304;53.876;10.662;2024-03-23T13:20:42;100319.09;;;10.35
8533;BMP280;4304;53.876;10.662;2024-03-23T13:23:07;100316.63;;;10.45
8533;BMP280;4304;53.876;10.662;2024-03-23T13:25:32;100307.56;;;10.50
8533;BMP280;4304;53.876;10.662;2024-03-23T13:27:58;100317.31;;;10.36
8533;BMP280;4304;53.876;10.662;2024-03-23T13:30:24;100341.41;;;10.15
8533;BMP280;4304;53.876;10.662;2024-03-23T13:32:49;100338.69;;;10.16
8533;BMP280;4304;53.876;10.662;2024-03-23T13:35:15;100333.44;;;10.05
8533;BMP280;4304;53.876;10.662;2024-03-23T13:37:40;100327.56;;;9.91
8533;BMP280;4304;53.876;10.662;2024-03-23T13:40:07;100315.31;;;9.80
8533;BMP280;4304;53.876;10.662;2024-03-23T13:42:32;100303.69;;;9.86
8533;BMP280;4304;53.876;10.662;2024-03-23T13:44:58;100293.88;;;10.02
8533;BMP280;4304;53.876;10.662;2024-03-23T13:47:23;100297.81;;;10.07
8533;BMP280;4304;53.876;10.662;2024-03-23T13:49:48;100289.75;;;10.23
8533;BMP280;4304;53.876;10.662;2024-03-23T13:52:14;100300.06;;;10.12
8533;BMP280;4304;53.876;10.662;2024-03-23T13:54:39;100292.94;;;10.26
8533;BMP280;4304;53.876;10.662;2024-03-23T13:57:10;100301.41;;;10.40
8533;BMP280;4304;53.876;10.662;2024-03-23T13:59:36;100314.50;;;10.39
8533;BMP280;4304;53.876;10.662;2024-03-23T14:02:01;100324.72;;;10.29
8533;BMP280;4304;53.876;10.662;2024-03-23T14:04:26;100322.78;;;10.21
8533;BMP280;4304;53.876;10.662;2024-03-23T14:06:52;100313.28;;;10.09
8533;BMP280;4304;53.876;10.662;2024-03-23T14:09:17;100318.75;;;10.17
8533;BMP280;4304;53.876;10.662;2024-03-23T14:11:46;100320.31;;;9.71
8533;BMP280;4304;53.876;10.662;2024-03-23T14:14:12;100323.19;;;9.43
8533;BMP280;4304;53.876;10.662;2024-03-23T14:16:37;100308.38;;;8.96
8533;BMP280;4304;53.876;10.662;2024-03-23T14:19:03;100315.22;;;8.85
8533;BMP280;4304;53.876;10.662;2024-03-23T14:21:30;100309.19;;;8.72
8533;BMP280;4304;53.876;10.662;2024-03-23T14:23:56;100315.72;;;8.65
8533;BMP280;4304;53.876;10.662;2024-03-23T14:26:21;100302.53;;;8.55
8533;BMP280;4304;53.876;10.662;2024-03-23T14:28:46;100287.00;;;8.68
8533;BMP280;4304;53.876;10.662;2024-03-23T14:31:12;100278.63;;;8.89
8533;BMP280;4304;53.876;10.662;2024-03-23T14:33:38;100273.44;;;9.26
8533;BMP280;4304;53.876;10.662;2024-03-23T14:36:04;100282.22;;;9.36
8533;BMP280;4304;53.876;10.662;2024-03-23T14:38:29;100310.75;;;9.36
8533;BMP280;4304;53.876;10.662;2024-03-23T14:40:59;100314.06;;;9.38
8533;BMP280;4304;53.876;10.662;2024-03-23T14:43:25;100304.63;;;9.25
8533;BMP280;4304;53.876;10.662;2024-03-23T14:46:14;100303.59;;;9.27
8533;BMP280;4304;53.876;10.662;2024-03-23T14:48:40;100310.44;;;9.28
8533;BMP280;4304;53.876;10.662;2024-03-23T14:51:06;100307.53;;;9.20
8533;BMP280;4304;53.876;10.662;2024-03-23T14:53:38;100292.22;;;9.17
8533;BMP280;4304;53.876;10.662;2024-03-23T14:56:08;100295.72;;;9.29
8533;BMP280;4304;53.876;10.662;2024-03-23T14:58:34;100297.06;;;9.34
8533;BMP280;4304;53.876;10.662;2024-03-23T15:01:04;100293.75;;;9.20
8533;BMP280;4304;53.876;10.662;2024-03-23T15:03:29;100296.38;;;9.07
8533;BMP280;4304;53.876;10.662;2024-03-23T15:05:56;100283.91;;;8.75
8533;BMP280;4304;53.876;10.662;2024-03-23T15:08:22;100271.38;;;8.94
8533;BMP280;4304;53.876;10.662;2024-03-23T15:10:48;100269.50;;;8.84
8533;BMP280;4304;53.876;10.662;2024-03-23T15:13:13;100275.09;;;8.90
8533;BMP280;4304;53.876;10.662;2024-03-23T15:15:40;100297.16;;;8.95
8533;BMP280;4304;53.876;10.662;2024-03-23T15:18:09;100303.59;;;8.90
8533;BMP280;4304;53.876;10.662;2024-03-23T15:20:34;100296.97;;;8.86
8533;BMP280;4304;53.876;10.662;2024-03-23T15:23:04;100297.59;;;8.90